createdAt,value
2023-04-03T00:01:02.562Z,54.24
2023-04-03T00:03:32.105Z,54.37
2023-04-03T00:06:00.470Z,54.20
2023-04-03T00:08:28.571Z,54.10
2023-04-03T00:10:56.716Z,53.99
2023-04-03T00:13:25.310Z,54.23
2023-04-03T00:15:53.886Z,53.92
2023-04-03T00:18:22.044Z,54.77
2023-04-03T00:20:51.784Z,54.84
2023-04-03T00:23:19.913Z,54.53
2023-04-03T00:25:48.100Z,54.29
2023-04-03T00:28:16.282Z,54.29
2023-04-03T00:30:44.457Z,54.38
2023-04-03T00:33:14.198Z,54.38
2023-04-03T00:35:42.938Z,54.44
2023-04-03T00:38:12.510Z,54.36
2023-04-03T00:40:44.735Z,54.30
2023-04-03T00:43:15.560Z,54.09
2023-04-03T00:45:45.419Z,53.91
2023-04-03T00:48:18.426Z,54.07
2023-04-03T00:50:47.535Z,54.08
2023-04-03T00:53:20.657Z,54.30
2023-04-03T00:55:50.569Z,54.22
2023-04-03T00:58:21.931Z,54.12
2023-04-03T01:00:57.326Z,54.26
2023-04-03T01:03:26.347Z,54.14
2023-04-03T01:05:54.667Z,54.30
2023-04-03T01:08:24.367Z,54.52
2023-04-03T01:10:52.575Z,54.59
2023-04-03T01:13:25.489Z,54.48
2023-04-03T01:15:53.704Z,54.76
2023-04-03T01:18:22.496Z,54.53
2023-04-03T01:21:32.378Z,54.61
2023-04-03T01:24:14.073Z,54.16
2023-04-03T01:26:42.800Z,54.05
2023-04-03T01:29:11.130Z,54.39
2023-04-03T01:31:49.488Z,54.87
2023-04-03T01:34:17.807Z,54.49
2023-04-03T01:36:46.001Z,54.45
2023-04-03T01:39:14.420Z,54.26
2023-04-03T01:41:42.461Z,53.94
2023-04-03T01:44:10.717Z,53.93
2023-04-03T01:46:39.201Z,54.10
2023-04-03T01:49:08.673Z,54.48
2023-04-03T01:51:36.795Z,54.47
2023-04-03T01:54:05.076Z,54.60
2023-04-03T01:56:33.264Z,54.31
2023-04-03T01:59:01.529Z,54.72
2023-04-03T02:01:29.607Z,54.35
2023-04-03T02:03:57.734Z,54.96
2023-04-03T02:06:27.579Z,54.62
2023-04-03T02:08:55.752Z,54.43
2023-04-03T02:11:23.827Z,54.33
2023-04-03T02:13:51.853Z,54.62
2023-04-03T02:16:19.975Z,54.77
2023-04-03T02:18:48.062Z,54.71
2023-04-03T02:21:16.129Z,54.96
2023-04-03T02:23:45.666Z,54.80
2023-04-03T02:26:15.843Z,54.76
2023-04-03T02:28:44.529Z,54.53
2023-04-03T02:31:13.178Z,54.65
2023-04-03T02:33:41.442Z,54.61
2023-04-03T02:36:10.583Z,54.81
2023-04-03T02:38:39.224Z,54.74
2023-04-03T02:41:10.648Z,54.07
2023-04-03T02:43:38.964Z,54.41
2023-04-03T02:46:07.717Z,54.52
2023-04-03T02:48:36.344Z,54.78
2023-04-03T02:51:04.486Z,54.43
2023-04-03T02:53:32.624Z,54.46
2023-04-03T02:56:00.725Z,54.40
2023-04-03T02:58:30.219Z,54.25
2023-04-03T03:00:58.304Z,54.78
2023-04-03T03:03:26.411Z,55.03
2023-04-03T03:06:03.582Z,54.66
2023-04-03T03:08:31.730Z,54.81
2023-04-03T03:10:59.756Z,54.40
2023-04-03T03:13:29.478Z,54.79
2023-04-03T03:15:58.176Z,55.02
2023-04-03T03:18:26.365Z,54.86
2023-04-03T03:20:54.931Z,54.79
2023-04-03T03:23:24.119Z,54.64
2023-04-03T03:25:57.623Z,54.92
2023-04-03T03:28:26.112Z,54.78
2023-04-03T03:30:55.735Z,55.03
2023-04-03T03:33:23.955Z,55.08
2023-04-03T03:35:52.380Z,54.91
2023-04-03T03:38:20.534Z,55.08
2023-04-03T03:40:49.839Z,55.50
2023-04-03T03:43:18.217Z,55.09
2023-04-03T03:45:47.394Z,55.16
2023-04-03T03:48:16.945Z,55.52
2023-04-03T03:50:45.017Z,55.24
2023-04-03T03:53:13.123Z,55.09
2023-04-03T03:55:41.311Z,55.46
2023-04-03T03:58:09.438Z,54.94
2023-04-03T04:00:37.786Z,54.70
2023-04-03T04:03:06.062Z,54.82
2023-04-03T04:05:36.157Z,55.11
2023-04-03T04:08:04.549Z,55.54
2023-04-03T04:10:32.556Z,55.34
2023-04-03T04:13:00.773Z,55.35
2023-04-03T04:15:28.914Z,54.98
2023-04-03T04:17:58.150Z,55.27
2023-04-03T04:20:26.399Z,55.59
2023-04-03T04:22:55.845Z,55.32
2023-04-03T04:25:23.940Z,55.13
2023-04-03T04:27:52.035Z,55.62
2023-04-03T04:30:20.120Z,55.25
2023-04-03T04:32:48.409Z,55.02
2023-04-03T04:35:17.136Z,55.24
2023-04-03T04:37:45.771Z,55.30
2023-04-03T04:40:15.797Z,55.39
2023-04-03T04:42:43.977Z,55.53
2023-04-03T04:45:12.690Z,55.73
2023-04-03T04:47:40.900Z,55.45
2023-04-03T04:50:09.770Z,55.47
2023-04-03T04:52:37.962Z,55.56
2023-04-03T04:55:07.062Z,55.97
2023-04-03T04:57:36.782Z,55.64
2023-04-03T05:00:06.011Z,55.95
2023-04-03T05:02:34.229Z,55.93
2023-04-03T05:05:04.375Z,55.82
2023-04-03T05:07:33.145Z,55.85
2023-04-03T05:10:01.288Z,55.83
2023-04-03T05:12:29.380Z,55.94
2023-04-03T05:14:58.825Z,55.89
2023-04-03T05:17:26.929Z,56.09
2023-04-03T05:19:55.052Z,56.11
2023-04-03T05:22:23.432Z,56.14
2023-04-03T05:24:51.499Z,56.09
2023-04-03T05:27:19.728Z,55.85
2023-04-03T05:29:47.924Z,55.80
2023-04-03T05:32:17.605Z,55.96
2023-04-03T05:34:46.048Z,56.26
2023-04-03T05:37:14.348Z,55.80
2023-04-03T05:39:42.617Z,55.79
2023-04-03T05:42:12.472Z,56.35
2023-04-03T05:44:41.843Z,55.93
2023-04-03T05:47:10.001Z,56.17
2023-04-03T05:49:41.786Z,55.84
2023-04-03T05:52:20.116Z,55.76
2023-04-03T05:54:49.349Z,56.19
2023-04-03T05:57:18.188Z,55.69
2023-04-03T05:59:47.579Z,55.83
2023-04-03T06:02:17.184Z,56.19
2023-04-03T06:04:47.505Z,55.48
2023-04-03T06:07:18.793Z,55.68
2023-04-03T06:09:47.724Z,55.17
2023-04-03T06:12:16.177Z,55.27
2023-04-03T06:14:44.417Z,55.80
2023-04-03T06:17:13.523Z,55.99
2023-04-03T06:19:42.771Z,55.66
2023-04-03T06:22:13.798Z,55.65
2023-04-03T06:24:42.730Z,55.63
2023-04-03T06:27:12.439Z,55.04
2023-04-03T06:29:41.033Z,55.40
2023-04-03T06:32:09.561Z,55.55
2023-04-03T06:34:38.442Z,54.97
2023-04-03T06:37:07.045Z,55.52
2023-04-03T06:39:37.036Z,54.90
2023-04-03T06:42:05.783Z,54.90
2023-04-03T06:44:35.550Z,54.82
2023-04-03T06:47:03.991Z,54.75
2023-04-03T06:49:33.318Z,54.35
2023-04-03T06:52:02.645Z,54.96
2023-04-03T06:54:31.209Z,54.59
2023-04-03T06:57:01.225Z,54.60
2023-04-03T06:59:30.110Z,55.11
2023-04-03T07:02:00.031Z,54.34
2023-04-03T07:04:28.739Z,54.57
2023-04-03T07:06:57.794Z,54.00
2023-04-03T07:09:26.119Z,54.78
2023-04-03T07:11:54.936Z,55.01
2023-04-03T07:14:24.765Z,55.09
2023-04-03T07:16:53.132Z,54.15
2023-04-03T07:19:22.462Z,54.12
2023-04-03T07:21:51.204Z,54.42
2023-04-03T07:24:19.233Z,54.70
2023-04-03T07:26:50.888Z,54.04
2023-04-03T07:29:18.933Z,54.41
2023-04-03T07:31:48.517Z,53.99
2023-04-03T07:34:16.801Z,53.91
2023-04-03T07:36:44.925Z,53.39
2023-04-03T07:39:13.124Z,53.13
2023-04-03T07:41:41.184Z,52.99
2023-04-03T07:44:10.879Z,53.03
2023-04-03T07:46:39.148Z,53.77
2023-04-03T07:49:09.120Z,52.77
2023-04-03T07:51:37.283Z,52.90
2023-04-03T07:54:06.137Z,53.06
2023-04-03T07:56:34.619Z,53.42
2023-04-03T07:59:02.847Z,52.87
2023-04-03T08:01:33.553Z,52.25
2023-04-03T08:04:01.915Z,52.25
2023-04-03T08:06:45.781Z,51.62
2023-04-03T08:09:15.453Z,51.71
2023-04-03T08:11:43.928Z,51.70
2023-04-03T08:14:16.655Z,51.48
2023-04-03T08:16:46.151Z,51.63
2023-04-03T08:19:25.466Z,51.30
2023-04-03T08:21:56.561Z,51.31
2023-04-03T08:24:24.959Z,51.49
2023-04-03T08:26:53.214Z,51.05
2023-04-03T08:29:22.302Z,50.94
2023-04-03T08:31:51.012Z,51.47
2023-04-03T08:34:19.075Z,50.23
2023-04-03T08:36:47.933Z,49.72
2023-04-03T08:39:17.545Z,48.42
2023-04-03T08:41:47.588Z,48.17
2023-04-03T08:44:27.459Z,48.63
2023-04-03T08:47:04.581Z,48.26
2023-04-03T08:49:35.883Z,48.01
2023-04-03T08:52:12.150Z,48.04
2023-04-03T08:54:53.689Z,48.45
2023-04-03T08:57:30.833Z,48.10
2023-04-03T09:00:03.744Z,47.61
2023-04-03T09:02:36.400Z,47.10
2023-04-03T09:05:11.130Z,46.72
2023-04-03T09:07:45.417Z,46.65
2023-04-03T09:10:17.878Z,46.00
2023-04-03T09:12:51.524Z,46.25
2023-04-03T09:15:35.576Z,46.09
2023-04-03T09:18:13.752Z,45.75
2023-04-03T09:20:47.769Z,45.60
2023-04-03T09:23:24.093Z,45.26
2023-04-03T09:25:59.040Z,45.10
2023-04-03T09:28:27.819Z,45.01
2023-04-03T09:30:57.314Z,44.47
2023-04-03T09:33:26.683Z,44.11
2023-04-03T09:35:54.764Z,44.07
2023-04-03T09:38:25.262Z,44.31
2023-04-03T09:41:08.667Z,44.11
2023-04-03T09:43:40.042Z,43.81
2023-04-03T09:46:28.746Z,43.05
2023-04-03T09:49:08.325Z,42.84
2023-04-03T09:51:38.072Z,42.38
2023-04-03T09:54:28.667Z,41.48
2023-04-03T09:57:00.754Z,41.63
2023-04-03T09:59:29.071Z,40.94
2023-04-03T10:02:01.911Z,40.48
2023-04-03T10:04:41.485Z,40.22
2023-04-03T10:07:31.672Z,40.33
2023-04-03T10:10:01.271Z,40.87
2023-04-03T10:12:31.096Z,40.03
2023-04-03T10:15:01.690Z,39.90
2023-04-03T10:17:52.547Z,40.22
2023-04-03T10:20:32.752Z,39.45
2023-04-03T10:23:14.429Z,39.55
2023-04-03T10:25:47.579Z,38.64
2023-04-03T10:28:24.680Z,38.83
2023-04-03T10:31:00.973Z,38.44
2023-04-03T10:33:38.553Z,38.12
2023-04-03T10:36:19.955Z,38.35
2023-04-03T10:38:57.422Z,38.38
2023-04-03T10:41:34.454Z,38.01
2023-04-03T10:44:15.317Z,37.95
2023-04-03T10:46:49.920Z,38.37
2023-04-03T10:49:31.379Z,37.99
2023-04-03T10:52:06.144Z,38.35
2023-04-03T10:54:40.826Z,38.52
2023-04-03T10:57:13.575Z,38.41
2023-04-03T10:59:47.850Z,38.37
2023-04-03T11:02:24.041Z,38.38
2023-04-03T11:04:55.918Z,38.13
2023-04-03T11:07:27.772Z,37.79
2023-04-03T11:10:01.156Z,37.78
2023-04-03T11:12:35.562Z,38.19
2023-04-03T11:15:07.117Z,38.68
2023-04-03T11:17:41.469Z,38.99
2023-04-03T11:20:18.559Z,38.45
2023-04-03T11:22:53.189Z,38.53
2023-04-03T11:25:25.275Z,38.90
2023-04-03T11:27:57.287Z,38.66
2023-04-03T11:30:32.685Z,39.04
2023-04-03T11:33:23.519Z,38.21
2023-04-03T11:35:56.481Z,38.49
2023-04-03T11:38:30.480Z,39.12
2023-04-03T11:41:00.442Z,38.59
2023-04-03T11:43:31.520Z,39.00
2023-04-03T11:46:03.554Z,38.46
2023-04-03T11:48:57.517Z,38.79
2023-04-03T11:51:52.414Z,38.88
2023-04-03T11:54:49.877Z,38.46
2023-04-03T11:58:04.128Z,38.63
2023-04-03T12:00:53.260Z,39.18
2023-04-03T12:03:54.298Z,39.32
2023-04-03T12:07:00.821Z,39.10
2023-04-03T12:09:33.899Z,39.68
2023-04-03T12:12:04.047Z,39.20
2023-04-03T12:14:32.139Z,39.63
2023-04-03T12:17:00.953Z,39.01
2023-04-03T12:19:42.558Z,38.97
2023-04-03T12:22:21.773Z,38.75
2023-04-03T12:24:53.199Z,38.97
2023-04-03T12:27:26.379Z,39.08
2023-04-03T12:30:00.533Z,38.61
2023-04-03T12:32:42.977Z,38.47
2023-04-03T12:35:24.305Z,38.36
2023-04-03T12:38:26.437Z,38.31
2023-04-03T12:41:00.964Z,38.49
2023-04-03T12:43:51.426Z,38.08
2023-04-03T12:46:22.917Z,38.40
2023-04-03T12:48:54.776Z,38.60
2023-04-03T12:51:34.039Z,38.43
2023-04-03T12:54:06.904Z,38.66
2023-04-03T12:56:35.379Z,38.22
2023-04-03T12:59:18.168Z,37.77
2023-04-03T13:01:55.439Z,37.75
2023-04-03T13:04:24.579Z,38.20
2023-04-03T13:06:55.050Z,38.55
2023-04-03T13:09:26.466Z,38.63
2023-04-03T13:12:00.628Z,38.61
2023-04-03T13:14:30.751Z,38.56
2023-04-03T13:17:01.386Z,38.35
2023-04-03T13:19:30.747Z,38.48
2023-04-03T13:22:06.276Z,37.94
2023-04-03T13:24:39.349Z,37.83
2023-04-03T13:27:08.249Z,37.60
2023-04-03T13:29:38.817Z,37.61
2023-04-03T13:32:09.070Z,37.63
2023-04-03T13:34:42.380Z,37.54
2023-04-03T13:37:24.564Z,37.49
2023-04-03T13:40:01.919Z,37.85
2023-04-03T13:42:32.460Z,37.51
2023-04-03T13:45:21.330Z,37.93
2023-04-03T13:47:51.315Z,37.73
2023-04-03T13:50:23.563Z,37.66
2023-04-03T13:52:58.020Z,37.65
2023-04-03T13:55:27.947Z,38.00
2023-04-03T13:57:58.995Z,37.49
2023-04-03T14:00:38.990Z,38.07
2023-04-03T14:03:16.794Z,37.99
2023-04-03T14:05:46.854Z,38.21
2023-04-03T14:08:17.372Z,37.79
2023-04-03T14:10:46.568Z,38.29
2023-04-03T14:13:16.885Z,38.26
2023-04-03T14:15:48.787Z,37.94
2023-04-03T14:18:20.196Z,38.57
2023-04-03T14:20:50.022Z,38.38
2023-04-03T14:23:20.462Z,38.46
2023-04-03T14:25:49.218Z,38.44
2023-04-03T14:28:20.281Z,38.20
2023-04-03T14:30:50.148Z,38.20
2023-04-03T14:33:20.351Z,38.99
2023-04-03T14:35:49.800Z,38.79
2023-04-03T14:38:27.028Z,38.35
2023-04-03T14:41:00.940Z,38.49
2023-04-03T14:43:35.392Z,38.75
2023-04-03T14:46:04.132Z,38.92
2023-04-03T14:48:32.960Z,38.27
2023-04-03T14:51:05.660Z,38.23
2023-04-03T14:53:39.246Z,38.96
2023-04-03T14:56:14.767Z,38.86
2023-04-03T14:58:42.941Z,38.98
2023-04-03T15:01:13.079Z,39.10
2023-04-03T15:03:41.956Z,38.73
2023-04-03T15:06:13.124Z,38.88
2023-04-03T15:08:43.797Z,38.87
2023-04-03T15:11:13.339Z,39.30
2023-04-03T15:13:42.238Z,39.60
2023-04-03T15:16:17.919Z,39.31
2023-04-03T15:18:47.294Z,39.48
2023-04-03T15:21:16.640Z,38.79
2023-04-03T15:23:46.706Z,39.60
2023-04-03T15:26:15.608Z,39.27
2023-04-03T15:28:45.080Z,39.44
2023-04-03T15:31:13.237Z,38.92
2023-04-03T15:33:41.801Z,39.31
2023-04-03T15:36:23.003Z,39.73
2023-04-03T15:39:00.982Z,39.38
2023-04-03T15:41:29.501Z,39.21
2023-04-03T15:43:58.031Z,39.43
2023-04-03T15:46:26.357Z,39.40
2023-04-03T15:48:55.103Z,39.29
2023-04-03T15:51:24.007Z,39.27
2023-04-03T15:53:52.937Z,39.69
2023-04-03T15:56:23.241Z,39.47
2023-04-03T15:58:51.337Z,39.57
2023-04-03T16:01:19.768Z,39.64
2023-04-03T16:03:48.200Z,39.75
2023-04-03T16:06:17.034Z,39.55
2023-04-03T16:08:45.511Z,39.85
2023-04-03T16:11:13.813Z,39.94
2023-04-03T16:13:43.678Z,40.21
2023-04-03T16:16:12.077Z,40.56
2023-04-03T16:18:40.875Z,40.48
2023-04-03T16:21:11.925Z,40.62
2023-04-03T16:23:40.189Z,40.37
2023-04-03T16:26:08.558Z,40.55
2023-04-03T16:28:37.076Z,40.61
2023-04-03T16:31:08.956Z,40.70
2023-04-03T16:33:38.793Z,40.60
2023-04-03T16:36:07.664Z,40.80
2023-04-03T16:38:36.277Z,41.04
2023-04-03T16:41:06.239Z,40.49
2023-04-03T16:43:36.933Z,41.10
2023-04-03T16:46:07.299Z,40.33
2023-04-03T16:48:35.985Z,40.77
2023-04-03T16:51:04.151Z,40.89
2023-04-03T16:53:32.678Z,40.84
2023-04-03T16:56:01.291Z,40.82
2023-04-03T16:58:29.770Z,40.27
2023-04-03T17:00:58.008Z,41.07
2023-04-03T17:03:29.222Z,41.27
2023-04-03T17:05:57.637Z,41.18
2023-04-03T17:08:26.302Z,41.68
2023-04-03T17:10:56.290Z,41.08
2023-04-03T17:13:24.710Z,41.94
2023-04-03T17:15:54.732Z,41.34
2023-04-03T17:18:23.990Z,42.01
2023-04-03T17:20:53.669Z,42.47
2023-04-03T17:23:22.085Z,42.33
2023-04-03T17:25:50.690Z,42.73
2023-04-03T17:28:19.489Z,42.31
2023-04-03T17:30:48.301Z,42.76
2023-04-03T17:33:16.808Z,41.81
2023-04-03T17:35:45.405Z,42.08
2023-04-03T17:38:15.748Z,42.87
2023-04-03T17:40:45.309Z,42.56
2023-04-03T17:43:14.436Z,42.30
2023-04-03T17:45:43.138Z,42.14
2023-04-03T17:48:11.956Z,42.63
2023-04-03T17:50:40.439Z,42.59
2023-04-03T17:53:09.280Z,43.08
2023-04-03T17:55:41.226Z,42.01
2023-04-03T17:58:09.870Z,43.21
2023-04-03T18:00:38.803Z,43.00
2023-04-03T18:03:07.349Z,42.12
2023-04-03T18:05:41.138Z,42.43
2023-04-03T18:08:09.830Z,42.10
2023-04-03T18:10:40.080Z,42.14
2023-04-03T18:13:10.082Z,42.38
2023-04-03T18:15:44.238Z,43.13
2023-04-03T18:18:12.762Z,42.49
2023-04-03T18:20:41.397Z,42.47
2023-04-03T18:23:10.247Z,43.14
2023-04-03T18:25:40.659Z,42.38
2023-04-03T18:28:09.865Z,42.90
2023-04-03T18:30:38.648Z,42.37
2023-04-03T18:33:07.244Z,43.01
2023-04-03T18:35:35.927Z,42.38
2023-04-03T18:38:04.790Z,42.55
2023-04-03T18:40:34.711Z,42.63
2023-04-03T18:43:05.994Z,42.61
2023-04-03T18:45:34.569Z,43.03
2023-04-03T18:48:02.889Z,43.20
2023-04-03T18:50:31.791Z,42.74
2023-04-03T18:53:00.255Z,42.60
2023-04-03T18:55:28.651Z,42.30
2023-04-03T18:57:57.010Z,42.97
2023-04-03T19:00:27.651Z,42.46
2023-04-03T19:02:56.186Z,43.15
2023-04-03T19:05:27.778Z,42.45
2023-04-03T19:07:57.333Z,42.85
2023-04-03T19:10:27.777Z,42.27
2023-04-03T19:12:56.535Z,42.23
2023-04-03T19:15:27.669Z,42.71
2023-04-03T19:17:55.985Z,42.50
2023-04-03T19:20:24.745Z,42.18
2023-04-03T19:22:54.117Z,42.70
2023-04-03T19:25:23.432Z,42.36
2023-04-03T19:27:51.873Z,42.59
2023-04-03T19:30:20.124Z,42.90
2023-04-03T19:32:50.109Z,42.21
2023-04-03T19:35:18.556Z,42.87
2023-04-03T19:37:50.881Z,43.02
2023-04-03T19:40:19.423Z,42.40
2023-04-03T19:42:47.773Z,42.33
2023-04-03T19:45:18.163Z,42.51
2023-04-03T19:47:47.334Z,42.52
2023-04-03T19:50:16.950Z,42.40
2023-04-03T19:52:45.560Z,43.02
2023-04-03T19:55:14.872Z,42.50
2023-04-03T19:57:43.206Z,42.51
2023-04-03T20:00:13.737Z,43.20
2023-04-03T20:02:41.894Z,43.05
2023-04-03T20:05:11.335Z,42.55
2023-04-03T20:07:40.994Z,43.06
2023-04-03T20:10:09.770Z,43.11
2023-04-03T20:12:38.424Z,43.25
2023-04-03T20:15:09.162Z,42.85
2023-04-03T20:17:37.606Z,42.98
2023-04-03T20:20:07.043Z,43.33
2023-04-03T20:22:36.404Z,43.03
2023-04-03T20:25:07.535Z,42.93
2023-04-03T20:27:36.178Z,43.23
2023-04-03T20:30:06.272Z,43.46
2023-04-03T20:32:34.911Z,42.81
2023-04-03T20:35:04.595Z,43.36
2023-04-03T20:37:34.048Z,43.10
2023-04-03T20:40:02.191Z,42.84
2023-04-03T20:42:31.679Z,42.80
2023-04-03T20:44:59.751Z,42.96
2023-04-03T20:47:28.094Z,42.65
2023-04-03T20:49:56.821Z,42.91
2023-04-03T20:52:24.909Z,42.50
2023-04-03T20:54:53.676Z,43.04
2023-04-03T20:57:22.579Z,42.79
2023-04-03T20:59:54.706Z,42.40
2023-04-03T21:02:22.945Z,42.16
2023-04-03T21:04:54.379Z,42.64
2023-04-03T21:07:59.896Z,42.37
2023-04-03T21:11:05.062Z,42.28
2023-04-03T21:14:10.347Z,42.44
2023-04-03T21:16:38.837Z,42.69
2023-04-03T21:19:16.014Z,42.55
2023-04-03T21:21:45.856Z,42.84
2023-04-03T21:24:17.205Z,42.94
2023-04-03T21:26:46.471Z,42.94
2023-04-03T21:29:15.208Z,42.72
2023-04-03T21:31:56.934Z,42.41
2023-04-03T21:34:27.801Z,42.39
2023-04-03T21:36:57.411Z,42.42
2023-04-03T21:39:25.691Z,42.47
2023-04-03T21:41:53.972Z,42.62
2023-04-03T21:44:22.489Z,42.53
2023-04-03T21:46:53.897Z,42.47
2023-04-03T21:49:22.531Z,42.30
2023-04-03T21:51:52.648Z,42.26
2023-04-03T21:54:21.277Z,42.37
2023-04-03T21:56:49.695Z,42.33
2023-04-03T21:59:17.989Z,42.12
2023-04-03T22:01:46.337Z,42.21
2023-04-03T22:04:15.726Z,42.49
2023-04-03T22:06:44.497Z,42.47
2023-04-03T22:09:14.053Z,42.33
2023-04-03T22:11:45.853Z,42.39
2023-04-03T22:14:14.252Z,42.43
2023-04-03T22:16:46.300Z,42.25
2023-04-03T22:19:14.546Z,42.10
2023-04-03T22:21:42.707Z,42.00
2023-04-03T22:24:10.846Z,42.33
2023-04-03T22:26:44.473Z,42.41
2023-04-03T22:29:13.349Z,42.41
2023-04-03T22:31:42.487Z,42.62
2023-04-03T22:34:10.699Z,42.59
2023-04-03T22:36:38.896Z,42.54
2023-04-03T22:39:07.237Z,42.47
2023-04-03T22:41:35.359Z,42.12
2023-04-03T22:44:04.887Z,42.38
2023-04-03T22:46:33.141Z,42.56
2023-04-03T22:49:01.572Z,42.53
2023-04-03T22:51:29.809Z,42.27
2023-04-03T22:53:58.007Z,42.33
2023-04-03T22:56:26.701Z,42.18
2023-04-03T22:58:55.413Z,42.46
2023-04-03T23:01:25.306Z,42.48
2023-04-03T23:03:53.498Z,42.65
2023-04-03T23:06:21.718Z,42.49
2023-04-03T23:08:49.847Z,42.71
2023-04-03T23:11:18.070Z,42.80
2023-04-03T23:13:46.358Z,42.52
2023-04-03T23:16:14.651Z,42.70
2023-04-03T23:18:44.164Z,42.73
2023-04-03T23:21:12.522Z,42.76
2023-04-03T23:23:40.666Z,42.81
2023-04-03T23:26:09.821Z,42.62
2023-04-03T23:28:38.034Z,42.82
2023-04-03T23:31:07.880Z,43.17
2023-04-03T23:33:36.317Z,43.25
2023-04-03T23:36:09.891Z,43.32
2023-04-03T23:38:38.301Z,43.58
2023-04-03T23:41:06.673Z,43.42
2023-04-03T23:43:34.833Z,43.56
2023-04-03T23:46:03.032Z,43.46
2023-04-03T23:48:31.435Z,43.74
2023-04-03T23:50:59.568Z,43.59
2023-04-03T23:53:29.154Z,43.34
2023-04-03T23:55:57.353Z,43.47
2023-04-03T23:58:25.598Z,42.86
